Time;durP1;ratioP1;P1;durP2;ratioP2;P2;SDS_P1;SDS_P2;PMS_P1;PMS_P2;Temp;Humidity;BMP_temperature;BMP_pressure;BME280_temperature;BME280_humidity;BME280_pressure;Samples;Min_cycle;Max_cycle;Signal;HPM_P1;HPM_P2
2022/07/22 00:02:02;;;;;;;7.43;6.63;;;18.70;99.90;;;;;;5084462;28;20462;-61
2022/07/22 00:04:30;;;;;;;6.70;6.00;;;18.70;99.90;;;;;;5082849;28;20502;-60
2022/07/22 00:06:57;;;;;;;7.90;7.20;;;18.70;99.90;;;;;;5092246;28;20521;-61
2022/07/22 00:09:24;;;;;;;8.80;7.90;;;18.70;99.90;;;;;;5075372;28;20523;-61
2022/07/22 00:11:52;;;;;;;6.97;6.37;;;18.60;99.90;;;;;;5079617;28;21011;-61
2022/07/22 00:14:19;;;;;;;9.07;8.27;;;18.60;99.90;;;;;;5073556;28;20544;-61
2022/07/22 00:16:46;;;;;;;8.27;7.67;;;18.60;99.90;;;;;;5092075;28;20953;-61
2022/07/22 00:19:15;;;;;;;8.50;7.73;;;18.60;99.90;;;;;;5090961;28;20903;-61
2022/07/22 00:21:42;;;;;;;7.90;7.20;;;18.60;99.90;;;;;;5086277;28;20507;-61
2022/07/22 00:24:10;;;;;;;8.93;7.83;;;18.60;99.90;;;;;;5091721;28;20482;-60
2022/07/22 00:26:37;;;;;;;8.23;7.43;;;18.60;99.90;;;;;;5084541;28;20495;-61
2022/07/22 00:29:04;;;;;;;10.10;9.20;;;18.60;99.90;;;;;;5086099;28;20498;-61
2022/07/22 00:31:32;;;;;;;8.70;7.90;;;18.60;99.90;;;;;;5081165;28;20455;-61
2022/07/22 00:34:01;;;;;;;7.77;7.10;;;18.60;99.90;;;;;;5077936;28;20525;-61
2022/07/22 00:36:29;;;;;;;8.50;7.70;;;18.70;99.90;;;;;;5094544;28;20492;-60
2022/07/22 00:38:57;;;;;;;9.93;9.03;;;18.70;99.90;;;;;;5076647;28;20447;-62
2022/07/22 00:41:24;;;;;;;8.70;7.83;;;18.70;99.90;;;;;;5085528;28;20515;-59
2022/07/22 00:43:53;;;;;;;8.63;7.93;;;18.70;99.90;;;;;;5094442;28;20516;-61
2022/07/22 00:46:21;;;;;;;8.40;7.57;;;18.80;99.90;;;;;;5090372;28;20528;-63
2022/07/22 00:48:48;;;;;;;8.50;7.80;;;18.70;99.90;;;;;;5086795;28;20494;-62
2022/07/22 00:51:16;;;;;;;9.50;7.90;;;18.80;99.90;;;;;;5094563;28;20458;-60
2022/07/22 00:53:46;;;;;;;8.73;7.70;;;18.80;99.90;;;;;;5092628;28;20534;-60
2022/07/22 00:56:14;;;;;;;8.00;7.30;;;18.80;99.90;;;;;;5083416;28;20493;-61
2022/07/22 00:58:41;;;;;;;9.50;8.70;;;18.80;99.90;;;;;;5091335;28;20464;-61
2022/07/22 01:01:09;;;;;;;9.37;8.57;;;18.80;99.90;;;;;;5081902;28;20458;-60
2022/07/22 01:03:36;;;;;;;9.50;8.60;;;18.90;99.90;;;;;;5078702;28;20502;-60
2022/07/22 01:06:04;;;;;;;8.40;7.60;;;18.90;99.90;;;;;;5088851;28;20454;-62
2022/07/22 01:08:34;;;;;;;8.60;7.90;;;18.90;99.90;;;;;;5076691;28;20462;-61
2022/07/22 01:11:10;;;;;;;9.97;8.97;;;19.00;99.90;;;;;;5079311;28;20979;-61
2022/07/22 01:13:38;;;;;;;10.23;8.57;;;19.00;99.90;;;;;;5096718;28;20883;-61
2022/07/22 01:16:07;;;;;;;9.17;8.37;;;19.10;99.90;;;;;;5080067;28;20527;-61
2022/07/22 01:18:34;;;;;;;10.27;8.97;;;19.10;99.90;;;;;;5084604;28;20491;-60
2022/07/22 01:21:04;;;;;;;8.03;7.33;;;19.10;99.90;;;;;;5082734;28;21020;-61
2022/07/22 01:23:31;;;;;;;10.70;9.70;;;19.10;99.90;;;;;;5075482;28;20475;-61
2022/07/22 01:25:59;;;;;;;9.77;8.87;;;19.10;99.90;;;;;;5074835;28;20483;-61
2022/07/22 01:28:26;;;;;;;9.60;8.77;;;19.10;99.90;;;;;;5075996;28;20526;-61
2022/07/22 01:30:54;;;;;;;10.50;9.47;;;19.10;99.90;;;;;;5076412;28;20471;-61
2022/07/22 01:33:23;;;;;;;11.50;10.40;;;19.10;99.90;;;;;;5082305;28;20507;-61
2022/07/22 01:35:51;;;;;;;11.20;10.10;;;19.10;99.90;;;;;;5093878;28;20478;-61
2022/07/22 01:38:19;;;;;;;11.70;10.60;;;18.90;99.90;;;;;;5082370;28;20516;-60
2022/07/22 01:40:47;;;;;;;13.03;11.83;;;18.80;99.90;;;;;;5079825;28;20501;-61
2022/07/22 01:43:17;;;;;;;13.07;11.77;;;18.70;99.90;;;;;;5094950;28;20465;-61
2022/07/22 01:45:45;;;;;;;12.77;11.57;;;18.50;99.90;;;;;;5090705;28;20818;-61
2022/07/22 01:48:13;;;;;;;12.97;11.77;;;18.40;99.90;;;;;;5094282;28;20446;-62
2022/07/22 01:50:40;;;;;;;12.87;11.67;;;18.40;99.90;;;;;;5094648;28;20451;-62
2022/07/22 01:53:08;;;;;;;12.50;11.30;;;18.30;99.90;;;;;;5095755;28;20442;-61
2022/07/22 01:55:36;;;;;;;13.93;12.33;;;18.30;99.90;;;;;;5075423;28;20604;-61
2022/07/22 01:58:04;;;;;;;13.07;11.60;;;18.10;99.90;;;;;;5076089;28;20459;-61
2022/07/22 02:00:32;;;;;;;14.53;12.97;;;18.10;99.90;;;;;;5088479;28;20462;-62
2022/07/22 02:02:59;;;;;;;12.93;11.40;;;18.10;99.90;;;;;;5092807;28;20472;-62
2022/07/22 02:05:27;;;;;;;10.80;8.90;;;18.00;99.90;;;;;;5092807;28;20511;-62
2022/07/22 02:07:54;;;;;;;11.13;7.53;;;18.00;99.90;;;;;;5088712;28;20529;-62
2022/07/22 02:10:21;;;;;;;8.97;8.07;;;17.90;99.90;;;;;;5081477;28;20451;-62
2022/07/22 02:12:50;;;;;;;8.70;7.47;;;17.90;99.90;;;;;;5092263;28;20513;-61
2022/07/22 02:15:17;;;;;;;7.30;6.17;;;17.80;99.90;;;;;;5094532;28;20535;-62
2022/07/22 02:17:44;;;;;;;6.33;5.73;;;17.80;99.90;;;;;;5094230;28;20492;-62
2022/07/22 02:20:13;;;;;;;6.17;4.97;;;17.80;99.90;;;;;;5094122;28;20462;-62
2022/07/22 02:22:40;;;;;;;7.23;5.77;;;17.70;99.90;;;;;;5086665;28;20473;-61
2022/07/22 02:25:08;;;;;;;5.90;5.30;;;17.60;99.90;;;;;;5074987;28;20464;-61
2022/07/22 02:27:36;;;;;;;7.27;5.53;;;17.50;99.90;;;;;;5080832;28;20880;-62
2022/07/22 02:30:05;;;;;;;7.93;5.77;;;17.40;99.90;;;;;;5079323;28;20463;-61
2022/07/22 02:32:33;;;;;;;7.57;5.40;;;17.40;99.90;;;;;;5077583;28;21036;-62
2022/07/22 02:35:00;;;;;;;7.40;5.80;;;17.30;99.90;;;;;;5074072;28;20519;-62
2022/07/22 02:37:27;;;;;;;9.10;5.70;;;17.30;99.90;;;;;;5073878;28;20462;-62
2022/07/22 02:39:55;;;;;;;7.60;6.53;;;17.20;99.90;;;;;;5074127;28;20486;-61
2022/07/22 02:42:22;;;;;;;7.63;6.17;;;17.20;99.90;;;;;;5082046;28;20519;-62
2022/07/22 02:44:49;;;;;;;8.80;5.70;;;17.10;99.90;;;;;;5099444;28;20543;-62
2022/07/22 02:47:18;;;;;;;9.50;6.63;;;17.10;99.90;;;;;;5099459;28;20463;-62
2022/07/22 02:49:45;;;;;;;7.83;5.90;;;17.00;99.90;;;;;;5098468;28;20938;-62
2022/07/22 02:52:13;;;;;;;9.73;6.60;;;17.00;99.90;;;;;;5080600;28;20851;-62
2022/07/22 02:54:40;;;;;;;7.90;5.80;;;17.00;99.90;;;;;;5096585;28;20466;-61
2022/07/22 02:57:07;;;;;;;8.50;5.87;;;17.00;99.90;;;;;;5091643;28;20478;-61
2022/07/22 02:59:35;;;;;;;5.53;4.83;;;16.90;99.90;;;;;;5084690;28;20512;-62
2022/07/22 03:02:02;;;;;;;8.70;5.47;;;16.90;99.90;;;;;;5087661;28;20873;-62
2022/07/22 03:04:31;;;;;;;6.97;4.67;;;16.90;99.90;;;;;;5083030;28;20478;-62
2022/07/22 03:06:58;;;;;;;8.13;5.00;;;16.80;99.90;;;;;;5090616;28;20458;-62
2022/07/22 03:09:26;;;;;;;8.43;6.23;;;16.80;99.90;;;;;;5094342;28;20488;-61
2022/07/22 03:11:53;;;;;;;7.80;5.77;;;16.80;99.90;;;;;;5091734;28;20462;-61
2022/07/22 03:14:21;;;;;;;9.73;5.63;;;16.80;99.90;;;;;;5087727;28;20540;-62
2022/07/22 03:16:49;;;;;;;5.90;5.10;;;16.70;99.90;;;;;;5087109;28;20515;-62
2022/07/22 03:19:16;;;;;;;6.30;5.00;;;16.70;99.90;;;;;;5076969;28;20493;-62
2022/07/22 03:21:45;;;;;;;5.47;4.40;;;16.70;99.90;;;;;;5089694;28;20511;-62
2022/07/22 03:24:12;;;;;;;7.53;4.80;;;16.60;99.90;;;;;;5089881;28;20482;-62
2022/07/22 03:26:39;;;;;;;5.23;4.70;;;16.60;99.90;;;;;;5080820;28;20524;-62
2022/07/22 03:29:07;;;;;;;5.23;4.73;;;16.60;99.90;;;;;;5082721;28;20976;-62
2022/07/22 03:31:34;;;;;;;4.63;4.20;;;16.60;99.90;;;;;;5082690;28;20512;-62
2022/07/22 03:34:02;;;;;;;4.37;3.97;;;16.60;99.90;;;;;;5078267;28;20580;-61
2022/07/22 03:36:29;;;;;;;7.17;5.33;;;16.60;99.90;;;;;;5087603;28;20536;-62
2022/07/22 03:38:58;;;;;;;5.83;5.20;;;16.60;99.90;;;;;;5092628;28;20466;-62
2022/07/22 03:41:26;;;;;;;8.57;5.83;;;16.60;99.90;;;;;;5079852;28;20464;-62
2022/07/22 03:43:53;;;;;;;5.90;4.83;;;16.60;99.90;;;;;;5076210;28;20482;-61
2022/07/22 03:46:20;;;;;;;5.83;5.07;;;16.60;99.90;;;;;;5081448;28;20489;-61
2022/07/22 03:48:47;;;;;;;7.13;5.30;;;16.60;99.90;;;;;;5082923;28;20487;-61
2022/07/22 03:51:15;;;;;;;5.97;5.13;;;16.60;99.90;;;;;;5072885;28;20966;-62
2022/07/22 03:53:42;;;;;;;5.07;3.73;;;16.60;99.90;;;;;;5092952;28;20559;-61
2022/07/22 03:56:11;;;;;;;5.90;4.17;;;16.60;99.90;;;;;;5073887;28;20525;-62
2022/07/22 03:58:38;;;;;;;5.77;4.80;;;16.60;99.90;;;;;;5073451;28;20538;-61
2022/07/22 04:01:06;;;;;;;6.10;4.53;;;16.60;99.90;;;;;;5072695;28;20491;-61
2022/07/22 04:03:33;;;;;;;5.40;4.73;;;16.60;99.90;;;;;;5086296;28;20531;-61
2022/07/22 04:06:01;;;;;;;5.07;4.53;;;16.60;99.90;;;;;;5076708;28;20455;-61
2022/07/22 04:10:05;;;;;;;6.43;5.00;;;16.60;99.90;;;;;;5136581;27;21121;-63
2022/07/22 04:12:34;;;;;;;6.30;4.77;;;16.60;99.90;;;;;;5115386;28;20446;-63
2022/07/22 04:15:01;;;;;;;8.73;6.47;;;16.50;99.90;;;;;;5114267;28;20473;-62
2022/07/22 04:17:28;;;;;;;9.23;5.73;;;16.60;99.90;;;;;;5116745;28;21046;-63
2022/07/22 04:19:57;;;;;;;8.83;6.00;;;16.60;99.90;;;;;;5116521;28;20465;-62
2022/07/22 04:22:24;;;;;;;7.83;6.13;;;16.60;99.90;;;;;;5113577;28;20544;-63
2022/07/22 04:24:51;;;;;;;6.87;5.53;;;16.60;99.90;;;;;;5115606;28;20462;-62
2022/07/22 04:27:20;;;;;;;8.50;6.20;;;16.60;99.90;;;;;;5115126;28;20786;-62
2022/07/22 04:29:48;;;;;;;10.50;5.80;;;16.60;99.90;;;;;;5100982;28;20478;-63
2022/07/22 04:32:15;;;;;;;6.40;5.80;;;16.60;99.90;;;;;;5094301;28;20934;-61
2022/07/22 04:34:43;;;;;;;7.60;6.30;;;16.70;99.90;;;;;;5103904;28;20603;-62
2022/07/22 04:37:10;;;;;;;6.93;6.03;;;16.70;99.90;;;;;;5112631;28;20437;-62
2022/07/22 04:39:37;;;;;;;8.10;6.50;;;16.70;99.90;;;;;;5111180;28;20469;-62
2022/07/22 04:42:05;;;;;;;8.70;6.00;;;16.70;99.90;;;;;;5113664;28;21021;-62
2022/07/22 04:44:34;;;;;;;7.93;6.50;;;16.80;99.90;;;;;;5113256;28;20473;-62
2022/07/22 04:47:01;;;;;;;7.23;6.23;;;16.80;99.90;;;;;;5113387;28;20454;-61
2022/07/22 04:49:28;;;;;;;7.03;6.10;;;16.80;99.90;;;;;;5114499;28;20477;-63
2022/07/22 04:51:56;;;;;;;8.50;6.67;;;16.80;99.90;;;;;;5115768;28;20453;-63
2022/07/22 04:54:23;;;;;;;6.70;6.00;;;16.80;99.90;;;;;;5112111;28;20473;-63
2022/07/22 04:56:51;;;;;;;7.17;6.43;;;16.80;99.90;;;;;;5119518;28;20453;-62
2022/07/22 04:59:18;;;;;;;6.13;5.47;;;16.80;99.90;;;;;;5117960;28;20491;-62
2022/07/22 05:01:47;;;;;;;5.53;5.03;;;16.80;99.90;;;;;;5121311;28;20442;-63
2022/07/22 05:04:14;;;;;;;5.57;4.07;;;16.80;99.90;;;;;;5119181;28;20485;-64
2022/07/22 05:06:42;;;;;;;6.17;5.60;;;16.80;99.90;;;;;;5119568;28;20487;-63
2022/07/22 05:09:09;;;;;;;5.80;5.20;;;16.80;99.90;;;;;;5114135;28;20473;-64
2022/07/22 05:11:37;;;;;;;6.60;5.90;;;16.90;99.90;;;;;;5114618;28;21116;-64
2022/07/22 05:14:04;;;;;;;6.47;4.70;;;16.90;99.90;;;;;;5115063;28;20531;-63
2022/07/22 05:16:31;;;;;;;6.00;5.30;;;16.90;99.90;;;;;;5120809;28;20446;-63
2022/07/22 05:19:00;;;;;;;6.17;5.37;;;16.90;99.90;;;;;;5123424;28;20449;-62
2022/07/22 05:21:28;;;;;;;6.80;5.07;;;16.90;99.90;;;;;;5101777;28;20458;-65
2022/07/22 05:23:55;;;;;;;7.37;5.63;;;16.90;99.90;;;;;;5100664;28;20489;-63
2022/07/22 05:26:24;;;;;;;8.30;6.10;;;16.90;99.90;;;;;;5091726;28;20461;-63
2022/07/22 05:28:51;;;;;;;8.53;7.60;;;16.90;99.90;;;;;;5094927;28;20513;-61
2022/07/22 05:31:19;;;;;;;10.30;6.97;;;17.00;99.90;;;;;;5096576;28;20457;-62
2022/07/22 05:33:46;;;;;;;8.90;7.00;;;17.00;99.90;;;;;;5096359;28;20462;-63
2022/07/22 05:36:15;;;;;;;8.50;6.90;;;17.00;99.90;;;;;;5080557;28;20454;-64
2022/07/22 05:38:42;;;;;;;8.70;7.33;;;17.00;99.90;;;;;;5084907;28;20527;-62
2022/07/22 05:41:10;;;;;;;10.13;7.67;;;16.90;99.90;;;;;;5095958;28;20995;-61
2022/07/22 05:43:37;;;;;;;10.40;6.40;;;16.90;99.90;;;;;;5094288;28;20887;-63
2022/07/22 05:46:05;;;;;;;11.27;7.40;;;16.90;99.90;;;;;;5095974;28;20464;-63
2022/07/22 05:48:32;;;;;;;9.90;7.63;;;16.90;99.90;;;;;;5096437;28;20892;-63
2022/07/22 05:50:59;;;;;;;10.70;8.30;;;17.00;99.90;;;;;;5095089;28;20472;-63
2022/07/22 05:53:28;;;;;;;8.10;7.13;;;17.00;99.90;;;;;;5095674;28;20535;-63
2022/07/22 05:55:56;;;;;;;10.13;7.80;;;17.10;99.90;;;;;;5088317;28;20499;-63
2022/07/22 05:58:23;;;;;;;7.87;6.83;;;17.20;99.90;;;;;;5094792;28;20460;-61
2022/07/22 06:00:51;;;;;;;10.40;7.37;;;17.20;99.90;;;;;;5094961;28;20937;-63
2022/07/22 06:03:18;;;;;;;12.40;7.50;;;17.20;99.90;;;;;;5095414;28;20541;-64
2022/07/22 06:05:45;;;;;;;8.90;6.30;;;17.30;99.90;;;;;;5095953;28;20563;-62
2022/07/22 06:08:13;;;;;;;10.10;6.47;;;17.30;99.90;;;;;;5094740;28;20981;-63
2022/07/22 06:10:41;;;;;;;13.20;7.43;;;17.30;99.90;;;;;;5095491;28;20930;-63
2022/07/22 06:13:09;;;;;;;8.37;6.10;;;17.20;99.90;;;;;;5096860;28;20450;-63
2022/07/22 06:15:36;;;;;;;6.73;5.80;;;17.20;99.90;;;;;;5095568;28;20930;-63
2022/07/22 06:18:04;;;;;;;8.70;5.90;;;17.30;99.90;;;;;;5095923;28;20434;-63
2022/07/22 06:20:31;;;;;;;7.03;5.30;;;17.30;99.90;;;;;;5102296;28;20439;-63
2022/07/22 06:22:58;;;;;;;7.93;5.30;;;17.30;99.90;;;;;;5104779;28;20514;-62
2022/07/22 06:25:26;;;;;;;8.63;6.13;;;17.40;99.90;;;;;;5097200;28;20938;-63
2022/07/22 06:27:55;;;;;;;8.20;5.10;;;17.40;99.90;;;;;;5094776;28;20476;-63
2022/07/22 06:30:22;;;;;;;7.10;5.50;;;17.40;99.90;;;;;;5094649;28;20592;-64
2022/07/22 06:32:50;;;;;;;7.60;5.67;;;17.50;99.90;;;;;;5094079;28;20496;-63
2022/07/22 06:35:17;;;;;;;7.70;5.80;;;17.40;99.90;;;;;;5094715;28;20974;-63
2022/07/22 06:37:44;;;;;;;6.20;5.03;;;17.40;99.90;;;;;;5094585;28;20442;-64
2022/07/22 06:40:13;;;;;;;5.90;5.40;;;17.40;99.90;;;;;;5094508;28;20492;-63
2022/07/22 06:42:40;;;;;;;6.30;5.33;;;17.50;99.90;;;;;;5094508;28;20451;-62
2022/07/22 06:45:10;;;;;;;5.80;5.30;;;17.50;99.90;;;;;;5094293;28;20470;-62
2022/07/22 06:47:38;;;;;;;8.40;5.03;;;17.50;99.90;;;;;;5094755;28;20447;-64
2022/07/22 06:50:06;;;;;;;6.63;6.03;;;17.60;99.90;;;;;;5093791;28;20470;-63
2022/07/22 06:52:34;;;;;;;5.60;4.80;;;17.70;99.90;;;;;;5095012;28;20454;-62
2022/07/22 06:55:01;;;;;;;4.90;4.50;;;17.70;99.90;;;;;;5094437;28;20462;-64
2022/07/22 06:57:29;;;;;;;5.53;4.57;;;17.90;99.90;;;;;;5094030;28;20868;-63
2022/07/22 06:59:56;;;;;;;5.60;4.67;;;17.90;99.90;;;;;;5093648;28;20499;-61
2022/07/22 07:02:25;;;;;;;4.80;4.40;;;18.00;99.90;;;;;;5092708;28;20473;-63
2022/07/22 07:04:52;;;;;;;6.93;4.47;;;18.10;99.90;;;;;;5094145;28;20465;-64
2022/07/22 07:07:19;;;;;;;5.10;3.67;;;18.20;99.90;;;;;;5093194;28;20825;-62
2022/07/22 07:09:47;;;;;;;5.60;4.37;;;18.30;99.90;;;;;;5093274;28;20475;-63
2022/07/22 07:12:14;;;;;;;6.33;5.00;;;18.40;99.90;;;;;;5093794;28;20866;-63
2022/07/22 07:14:41;;;;;;;4.77;3.70;;;18.50;99.90;;;;;;5093989;28;20935;-61
2022/07/22 07:17:09;;;;;;;4.87;3.70;;;18.60;99.90;;;;;;5094144;28;20450;-63
2022/07/22 07:19:38;;;;;;;3.63;3.33;;;18.70;99.90;;;;;;5093672;28;20451;-61
2022/07/22 07:22:05;;;;;;;4.80;3.50;;;18.70;99.90;;;;;;5093511;28;20472;-61
2022/07/22 07:24:33;;;;;;;7.40;4.50;;;18.70;99.90;;;;;;5093515;28;20466;-61
2022/07/22 07:27:00;;;;;;;5.13;4.20;;;18.60;99.90;;;;;;5093406;28;20499;-63
2022/07/22 07:29:27;;;;;;;8.57;5.20;;;18.40;99.90;;;;;;5093301;28;20470;-62
2022/07/22 07:31:55;;;;;;;6.80;5.20;;;18.30;99.90;;;;;;5093609;28;20438;-63
2022/07/22 07:34:22;;;;;;;4.97;4.47;;;18.10;99.90;;;;;;5093847;28;20474;-63
2022/07/22 07:36:51;;;;;;;5.53;3.90;;;18.10;99.90;;;;;;5093708;28;20870;-63
2022/07/22 07:39:18;;;;;;;5.70;4.80;;;17.90;99.90;;;;;;5093422;28;20559;-63
2022/07/22 07:41:46;;;;;;;6.90;3.87;;;17.80;99.90;;;;;;5093505;28;20500;-61
2022/07/22 07:44:13;;;;;;;3.40;3.10;;;17.90;99.90;;;;;;5092869;28;20466;-63
2022/07/22 07:46:40;;;;;;;4.80;3.73;;;18.00;99.90;;;;;;5094363;28;20476;-60
2022/07/22 07:49:08;;;;;;;5.80;3.67;;;18.30;99.90;;;;;;5102274;28;20474;-62
2022/07/22 07:51:36;;;;;;;5.43;2.90;;;18.60;99.90;;;;;;5099867;28;20459;-61
2022/07/22 07:54:05;;;;;;;3.77;3.20;;;18.80;99.90;;;;;;5101519;28;20879;-61
2022/07/22 07:56:32;;;;;;;4.43;3.03;;;19.00;99.90;;;;;;5099338;28;20442;-60
2022/07/22 07:58:59;;;;;;;5.30;2.83;;;19.10;99.90;;;;;;5097581;28;20498;-61
2022/07/22 08:01:27;;;;;;;3.97;2.47;;;19.30;99.80;;;;;;5096556;28;20454;-64
2022/07/22 08:03:54;;;;;;;3.30;2.70;;;19.30;99.30;;;;;;5096275;28;20462;-62
2022/07/22 08:06:21;;;;;;;4.00;2.53;;;19.40;99.00;;;;;;5096135;28;20495;-62
2022/07/22 08:08:49;;;;;;;3.67;2.30;;;19.50;98.60;;;;;;5094431;28;20474;-62
2022/07/22 08:11:17;;;;;;;1.97;1.87;;;19.70;98.20;;;;;;5094253;28;20446;-62
2022/07/22 08:13:45;;;;;;;5.00;2.57;;;19.80;97.00;;;;;;5093036;28;21050;-62
2022/07/22 08:16:12;;;;;;;3.33;2.90;;;19.90;96.00;;;;;;5092620;28;20450;-61
2022/07/22 08:18:40;;;;;;;4.50;2.43;;;19.90;95.70;;;;;;5093297;28;20507;-63
2022/07/22 08:21:07;;;;;;;3.17;2.23;;;20.10;95.30;;;;;;5093049;28;20449;-61
2022/07/22 08:23:35;;;;;;;3.20;2.47;;;20.20;94.70;;;;;;5092767;28;20462;-61
2022/07/22 08:26:03;;;;;;;5.30;2.30;;;20.20;94.20;;;;;;5092785;28;20477;-62
2022/07/22 08:28:31;;;;;;;4.07;2.40;;;20.10;94.10;;;;;;5092814;28;20948;-61
2022/07/22 08:30:59;;;;;;;3.30;2.50;;;20.00;94.30;;;;;;5093100;28;20551;-61
2022/07/22 08:33:26;;;;;;;4.97;2.93;;;19.90;94.60;;;;;;5092396;28;20531;-61
2022/07/22 08:35:53;;;;;;;2.63;2.33;;;19.80;94.70;;;;;;5092731;28;20450;-61
2022/07/22 08:38:21;;;;;;;4.90;2.70;;;19.60;95.10;;;;;;5092848;28;20819;-61
2022/07/22 08:40:48;;;;;;;4.63;2.87;;;19.60;95.40;;;;;;5092858;28;20495;-60
2022/07/22 08:43:16;;;;;;;4.20;2.57;;;19.50;95.60;;;;;;5092944;28;20466;-60
2022/07/22 08:45:45;;;;;;;4.00;2.80;;;19.50;95.70;;;;;;5093147;28;20438;-59
2022/07/22 08:48:12;;;;;;;3.60;2.90;;;19.40;95.70;;;;;;5092599;28;20511;-62
2022/07/22 08:50:39;;;;;;;5.33;4.60;;;19.40;95.70;;;;;;5092616;28;20993;-62
2022/07/22 08:53:10;;;;;;;4.83;3.13;;;19.30;95.80;;;;;;5092601;28;20438;-62
2022/07/22 08:55:42;;;;;;;7.10;2.80;;;19.30;96.00;;;;;;5095706;28;20431;-63
2022/07/22 08:58:10;;;;;;;3.80;2.83;;;19.30;96.10;;;;;;5096379;28;20422;-61
2022/07/22 09:00:37;;;;;;;4.37;2.93;;;19.30;95.90;;;;;;5095822;28;20438;-61
2022/07/22 09:03:23;;;;;;;5.20;3.10;;;19.40;95.80;;;;;;5096924;28;20499;-64
2022/07/22 09:05:51;;;;;;;5.60;3.00;;;19.50;95.60;;;;;;5100778;28;20777;-61
2022/07/22 09:08:19;;;;;;;2.33;2.13;;;19.80;95.20;;;;;;5100350;28;20508;-62
2022/07/22 09:10:46;;;;;;;8.47;3.77;;;20.10;94.70;;;;;;5098920;28;20478;-58
2022/07/22 09:13:16;;;;;;;5.70;3.10;;;20.50;93.60;;;;;;5096249;28;20450;-61
2022/07/22 09:15:48;;;;;;;5.60;2.97;;;20.60;93.00;;;;;;5096317;28;20447;-61
2022/07/22 09:18:16;;;;;;;5.63;3.23;;;20.80;92.40;;;;;;5095916;28;20439;-63
2022/07/22 09:20:45;;;;;;;6.70;2.77;;;20.80;91.90;;;;;;5095537;28;20496;-60
2022/07/22 09:23:13;;;;;;;3.80;2.90;;;20.80;91.40;;;;;;5095702;28;20443;-61
2022/07/22 09:25:42;;;;;;;6.83;3.53;;;20.80;91.30;;;;;;5095772;28;20497;-62
2022/07/22 09:28:15;;;;;;;5.90;3.13;;;20.80;90.90;;;;;;5095550;28;20443;-61
2022/07/22 09:30:49;;;;;;;6.10;3.30;;;20.60;90.80;;;;;;5095877;28;20474;-61
2022/07/22 09:33:17;;;;;;;5.03;2.90;;;20.40;91.10;;;;;;5097469;28;20466;-62
2022/07/22 09:35:47;;;;;;;6.90;3.20;;;20.30;91.30;;;;;;5098991;28;20601;-63
2022/07/22 09:38:16;;;;;;;4.80;2.87;;;20.40;91.40;;;;;;5100916;28;20445;-65
2022/07/22 09:40:45;;;;;;;4.13;2.80;;;20.50;91.20;;;;;;5100106;28;21007;-63
2022/07/22 09:43:15;;;;;;;5.20;3.03;;;20.60;90.80;;;;;;5096518;28;20984;-61
2022/07/22 09:45:48;;;;;;;6.53;3.40;;;20.80;90.30;;;;;;5096928;28;20470;-63
2022/07/22 09:48:17;;;;;;;5.53;3.30;;;20.80;89.90;;;;;;5095301;28;20432;-63
2022/07/22 09:50:47;;;;;;;7.50;3.20;;;20.90;89.00;;;;;;5095252;28;20534;-63
2022/07/22 09:53:15;;;;;;;7.90;3.90;;;21.10;88.10;;;;;;5095470;28;20517;-64
2022/07/22 09:55:42;;;;;;;6.20;3.47;;;21.10;87.30;;;;;;5095547;28;20834;-63
2022/07/22 09:58:11;;;;;;;4.33;3.33;;;21.10;87.30;;;;;;5095291;28;20503;-63
2022/07/22 10:00:40;;;;;;;4.67;3.70;;;21.00;87.50;;;;;;5095741;28;20451;-63
2022/07/22 10:03:11;;;;;;;4.93;3.53;;;20.80;88.20;;;;;;5095301;28;20931;-64
2022/07/22 10:05:42;;;;;;;5.53;3.40;;;20.60;90.00;;;;;;5094859;28;20446;-61
2022/07/22 10:08:11;;;;;;;7.87;4.13;;;20.40;90.60;;;;;;5095055;28;20464;-62
2022/07/22 10:10:40;;;;;;;3.47;3.17;;;20.20;91.40;;;;;;5095389;28;20905;-62
2022/07/22 10:13:08;;;;;;;3.27;2.97;;;19.90;92.00;;;;;;5094895;28;20454;-62
2022/07/22 10:15:36;;;;;;;5.40;3.33;;;19.80;92.60;;;;;;5094620;28;20443;-62
2022/07/22 10:18:06;;;;;;;5.27;3.03;;;19.90;92.80;;;;;;5095344;28;20442;-61
2022/07/22 10:20:34;;;;;;;5.40;2.90;;;19.90;92.50;;;;;;5094591;28;20457;-63
2022/07/22 10:23:03;;;;;;;5.07;3.27;;;20.00;92.50;;;;;;5094784;28;20487;-63
2022/07/22 10:25:48;;;;;;;5.10;4.43;;;20.10;92.30;;;;;;5094917;28;20477;-63
2022/07/22 10:28:23;;;;;;;4.07;3.30;;;20.30;92.10;;;;;;5094772;28;20423;-63
2022/07/22 10:30:51;;;;;;;3.07;2.57;;;20.70;91.50;;;;;;5093559;28;20462;-63
2022/07/22 10:33:19;;;;;;;4.23;2.47;;;20.90;90.50;;;;;;5093926;28;20799;-61
2022/07/22 10:35:58;;;;;;;2.40;2.20;;;21.10;89.40;;;;;;5094111;28;20526;-62
2022/07/22 10:38:27;;;;;;;5.00;2.40;;;21.30;87.50;;;;;;5096461;28;20443;-62
2022/07/22 10:40:58;;;;;;;3.67;2.83;;;21.40;85.60;;;;;;5104784;28;20451;-63
2022/07/22 10:43:27;;;;;;;4.50;2.80;;;21.40;84.20;;;;;;5105414;28;20479;-59
2022/07/22 10:45:55;;;;;;;3.17;2.47;;;21.40;83.50;;;;;;5108292;28;20474;-63
2022/07/22 10:48:25;;;;;;;5.13;2.33;;;21.40;83.20;;;;;;5105233;28;20448;-63
2022/07/22 10:51:09;;;;;;;4.00;2.83;;;21.50;82.80;;;;;;5100436;28;20991;-62
2022/07/22 10:53:46;;;;;;;8.10;3.10;;;21.50;82.20;;;;;;5099194;28;20461;-63
2022/07/22 10:56:26;;;;;;;3.87;3.00;;;21.10;82.80;;;;;;5103107;28;20428;-63
2022/07/22 10:59:11;;;;;;;4.93;2.70;;;20.70;85.10;;;;;;5101895;28;20428;-63
2022/07/22 11:01:40;;;;;;;6.10;3.00;;;20.40;87.10;;;;;;5101399;28;20498;-62
2022/07/22 11:04:12;;;;;;;7.47;2.60;;;20.10;88.80;;;;;;5098969;28;20868;-63
2022/07/22 11:06:40;;;;;;;5.83;2.93;;;20.00;90.20;;;;;;5096168;28;20447;-63
2022/07/22 11:09:09;;;;;;;6.43;3.00;;;20.00;90.30;;;;;;5094787;28;20450;-63
2022/07/22 11:11:44;;;;;;;6.43;3.03;;;20.00;90.30;;;;;;5093446;28;20540;-63
2022/07/22 11:14:25;;;;;;;6.20;3.07;;;20.00;90.20;;;;;;5093358;28;20473;-63
2022/07/22 11:16:53;;;;;;;3.83;2.70;;;20.00;90.00;;;;;;5093729;28;20834;-62
2022/07/22 11:19:22;;;;;;;3.10;2.80;;;20.10;90.00;;;;;;5092959;28;20595;-64
2022/07/22 11:21:55;;;;;;;6.40;3.00;;;20.20;89.30;;;;;;5093084;28;20446;-61
2022/07/22 11:24:23;;;;;;;3.60;2.80;;;20.20;88.80;;;;;;5093591;28;20464;-63
2022/07/22 11:26:54;;;;;;;5.03;3.10;;;20.40;88.30;;;;;;5093894;28;20447;-62
2022/07/22 11:29:26;;;;;;;2.80;2.43;;;20.50;87.20;;;;;;5094440;28;20429;-63
2022/07/22 11:31:54;;;;;;;4.13;3.20;;;20.80;86.20;;;;;;5093981;28;20528;-62
2022/07/22 11:34:22;;;;;;;5.07;2.77;;;21.00;84.50;;;;;;5094376;28;20471;-60
2022/07/22 11:36:50;;;;;;;3.70;3.37;;;21.20;83.10;;;;;;5095584;28;20498;-61
2022/07/22 11:39:21;;;;;;;4.13;3.20;;;21.40;81.50;;;;;;5095768;28;20448;-62
2022/07/22 11:41:48;;;;;;;6.23;3.33;;;21.50;80.00;;;;;;5097909;28;20882;-63
2022/07/22 11:44:21;;;;;;;5.63;2.90;;;21.60;79.10;;;;;;5097707;28;20468;-61
2022/07/22 11:46:49;;;;;;;6.57;3.03;;;21.70;78.00;;;;;;5097368;28;20930;-63
2022/07/22 11:49:18;;;;;;;5.30;3.23;;;21.80;77.30;;;;;;5097515;28;20443;-63
2022/07/22 11:51:46;;;;;;;6.60;3.70;;;21.70;77.10;;;;;;5097464;28;20474;-63
2022/07/22 11:54:13;;;;;;;4.17;3.20;;;21.70;76.90;;;;;;5097423;28;20468;-63
2022/07/22 11:56:41;;;;;;;4.33;3.20;;;21.40;77.00;;;;;;5096244;28;20517;-62
2022/07/22 11:59:12;;;;;;;6.03;3.50;;;21.30;77.80;;;;;;5096149;28;20522;-63
2022/07/22 12:01:41;;;;;;;4.90;4.20;;;21.10;78.40;;;;;;5095398;28;20950;-63
2022/07/22 12:04:10;;;;;;;3.80;3.40;;;20.90;79.10;;;;;;5095124;28;21004;-62
2022/07/22 12:06:40;;;;;;;6.40;3.93;;;20.90;79.50;;;;;;5096034;28;21019;-60
2022/07/22 12:09:09;;;;;;;7.43;3.67;;;21.00;79.40;;;;;;5095567;28;20816;-62
2022/07/22 12:11:38;;;;;;;3.80;3.40;;;20.90;79.40;;;;;;5095364;28;20866;-63
2022/07/22 12:14:10;;;;;;;4.00;3.50;;;21.00;79.40;;;;;;5095030;28;20537;-62
2022/07/22 12:16:38;;;;;;;6.90;3.10;;;21.10;78.80;;;;;;5094266;28;20447;-62
2022/07/22 12:19:08;;;;;;;3.93;3.40;;;21.10;78.30;;;;;;5093712;28;20454;-62
2022/07/22 12:21:38;;;;;;;6.93;3.53;;;21.00;78.20;;;;;;5098693;28;20430;-64
2022/07/22 12:24:07;;;;;;;10.60;4.10;;;20.80;78.50;;;;;;5105625;28;20875;-61
2022/07/22 12:26:46;;;;;;;4.07;3.40;;;20.80;79.10;;;;;;5102010;28;20463;-64
2022/07/22 12:29:16;;;;;;;5.73;3.50;;;20.80;79.10;;;;;;5099544;28;20427;-64
2022/07/22 12:31:44;;;;;;;5.43;3.60;;;20.90;79.20;;;;;;5101290;28;20998;-63
2022/07/22 12:34:14;;;;;;;4.70;3.27;;;20.90;78.80;;;;;;5097870;28;20497;-63
2022/07/22 12:36:45;;;;;;;4.30;3.47;;;20.90;78.80;;;;;;5098436;28;20521;-63
2022/07/22 12:39:18;;;;;;;4.90;3.03;;;20.80;78.70;;;;;;5098582;28;20466;-64
2022/07/22 12:41:49;;;;;;;6.13;3.47;;;20.70;79.10;;;;;;5097338;28;20452;-62
2022/07/22 12:44:22;;;;;;;7.50;4.37;;;20.60;79.60;;;;;;5097279;28;20502;-63
2022/07/22 12:46:51;;;;;;;3.97;3.27;;;20.60;79.90;;;;;;5099767;28;20442;-63
2022/07/22 12:49:25;;;;;;;4.37;3.20;;;20.70;80.00;;;;;;5102498;28;20436;-62
2022/07/22 12:52:11;;;;;;;4.80;3.20;;;20.70;79.70;;;;;;5103653;28;20471;-63
2022/07/22 12:54:39;;;;;;;7.33;3.50;;;20.80;79.70;;;;;;5104636;28;20454;-63